sensor_id;sensor_type;location;lat;lon;timestamp;temperature;humidity
52459;DHT22;38372;52.902;6.024;2022-11-20T00:01:33;-2.70;99.90
52459;DHT22;38372;52.902;6.024;2022-11-20T00:04:02;-2.70;99.90
52459;DHT22;38372;52.902;6.024;2022-11-20T00:06:52;-2.60;99.90
52459;DHT22;38372;52.902;6.024;2022-11-20T00:09:18;-2.50;99.90
52459;DHT22;38372;52.902;6.024;2022-11-20T00:11:43;-2.40;99.90
52459;DHT22;38372;52.902;6.024;2022-11-20T00:14:09;-2.40;99.90
52459;DHT22;38372;52.902;6.024;2022-11-20T00:16:35;-2.40;99.90
52459;DHT22;38372;52.902;6.024;2022-11-20T00:19:01;-2.30;99.90
52459;DHT22;38372;52.902;6.024;2022-11-20T00:21:28;-2.20;99.90
52459;DHT22;38372;52.902;6.024;2022-11-20T00:23:56;-2.20;99.90
52459;DHT22;38372;52.902;6.024;2022-11-20T00:26:23;-2.10;99.90
52459;DHT22;38372;52.902;6.024;2022-11-20T00:28:57;-2.00;99.90
52459;DHT22;38372;52.902;6.024;2022-11-20T00:31:23;-2.00;99.90
52459;DHT22;38372;52.902;6.024;2022-11-20T00:33:49;-1.90;99.90
52459;DHT22;38372;52.902;6.024;2022-11-20T00:36:20;-1.90;99.90
52459;DHT22;38372;52.902;6.024;2022-11-20T00:38:47;-1.90;99.90
52459;DHT22;38372;52.902;6.024;2022-11-20T00:41:14;-1.80;99.90
52459;DHT22;38372;52.902;6.024;2022-11-20T00:43:40;-1.80;99.90
52459;DHT22;38372;52.902;6.024;2022-11-20T00:46:14;-1.80;99.90
52459;DHT22;38372;52.902;6.024;2022-11-20T00:48:40;-1.80;99.90
52459;DHT22;38372;52.902;6.024;2022-11-20T00:51:06;-1.80;99.90
52459;DHT22;38372;52.902;6.024;2022-11-20T00:53:32;-1.80;99.90
52459;DHT22;38372;52.902;6.024;2022-11-20T00:56:05;-1.80;99.90
52459;DHT22;38372;52.902;6.024;2022-11-20T00:58:33;-1.70;99.90
52459;DHT22;38372;52.902;6.024;2022-11-20T01:01:09;-1.70;99.90
52459;DHT22;38372;52.902;6.024;2022-11-20T01:03:41;-1.70;99.90
52459;DHT22;38372;52.902;6.024;2022-11-20T01:06:14;-1.70;99.90
52459;DHT22;38372;52.902;6.024;2022-11-20T01:08:40;-1.70;99.90
52459;DHT22;38372;52.902;6.024;2022-11-20T01:11:10;-1.60;99.90
52459;DHT22;38372;52.902;6.024;2022-11-20T01:13:37;-1.60;99.90
52459;DHT22;38372;52.902;6.024;2022-11-20T01:18:42;-1.60;99.90
52459;DHT22;38372;52.902;6.024;2022-11-20T01:21:10;-1.50;99.90
52459;DHT22;38372;52.902;6.024;2022-11-20T01:23:38;-1.50;99.90
52459;DHT22;38372;52.902;6.024;2022-11-20T01:26:12;-1.40;99.90
52459;DHT22;38372;52.902;6.024;2022-11-20T01:28:39;-1.40;99.90
52459;DHT22;38372;52.902;6.024;2022-11-20T01:31:17;-1.40;99.90
52459;DHT22;38372;52.902;6.024;2022-11-20T01:33:49;-1.40;99.90
52459;DHT22;38372;52.902;6.024;2022-11-20T01:36:20;-1.40;99.90
52459;DHT22;38372;52.902;6.024;2022-11-20T01:38:56;-1.30;99.90
52459;DHT22;38372;52.902;6.024;2022-11-20T01:41:27;-1.30;99.90
52459;DHT22;38372;52.902;6.024;2022-11-20T01:44:14;-1.30;99.90
52459;DHT22;38372;52.902;6.024;2022-11-20T01:47:07;-1.20;99.90
52459;DHT22;38372;52.902;6.024;2022-11-20T01:49:46;-1.30;99.90
52459;DHT22;38372;52.902;6.024;2022-11-20T01:52:47;-1.30;99.90
52459;DHT22;38372;52.902;6.024;2022-11-20T01:55:25;-1.40;99.90
52459;DHT22;38372;52.902;6.024;2022-11-20T01:57:56;-1.40;99.90
52459;DHT22;38372;52.902;6.024;2022-11-20T02:00:22;-1.40;99.90
52459;DHT22;38372;52.902;6.024;2022-11-20T02:02:54;-1.40;99.90
52459;DHT22;38372;52.902;6.024;2022-11-20T02:08:38;-1.50;99.90
52459;DHT22;38372;52.902;6.024;2022-11-20T02:11:05;-1.60;99.90
52459;DHT22;38372;52.902;6.024;2022-11-20T02:13:40;-1.60;99.90
52459;DHT22;38372;52.902;6.024;2022-11-20T02:16:25;-1.70;99.90
52459;DHT22;38372;52.902;6.024;2022-11-20T02:18:54;-1.70;99.90
52459;DHT22;38372;52.902;6.024;2022-11-20T02:24:17;-1.70;99.90
52459;DHT22;38372;52.902;6.024;2022-11-20T02:26:57;-1.70;99.90
52459;DHT22;38372;52.902;6.024;2022-11-20T02:29:36;-1.70;99.90
52459;DHT22;38372;52.902;6.024;2022-11-20T02:32:29;-1.70;99.90
52459;DHT22;38372;52.902;6.024;2022-11-20T02:34:58;-1.70;99.90
52459;DHT22;38372;52.902;6.024;2022-11-20T02:37:32;-1.70;99.90
52459;DHT22;38372;52.902;6.024;2022-11-20T02:40:03;-1.70;99.90
52459;DHT22;38372;52.902;6.024;2022-11-20T02:42:38;-1.70;99.90
52459;DHT22;38372;52.902;6.024;2022-11-20T02:45:06;-1.70;99.90
52459;DHT22;38372;52.902;6.024;2022-11-20T02:47:39;-1.70;99.90
52459;DHT22;38372;52.902;6.024;2022-11-20T02:50:06;-1.70;99.90
52459;DHT22;38372;52.902;6.024;2022-11-20T02:52:32;-1.70;99.90
52459;DHT22;38372;52.902;6.024;2022-11-20T02:55:07;-1.70;99.90
52459;DHT22;38372;52.902;6.024;2022-11-20T02:57:33;-1.70;99.90
52459;DHT22;38372;52.902;6.024;2022-11-20T03:00:00;-1.70;99.90
52459;DHT22;38372;52.902;6.024;2022-11-20T03:02:31;-1.70;99.90
52459;DHT22;38372;52.902;6.024;2022-11-20T03:05:03;-1.70;99.90
52459;DHT22;38372;52.902;6.024;2022-11-20T03:07:34;-1.70;99.90
52459;DHT22;38372;52.902;6.024;2022-11-20T03:10:02;-1.70;99.90
52459;DHT22;38372;52.902;6.024;2022-11-20T03:12:29;-1.70;99.90
52459;DHT22;38372;52.902;6.024;2022-11-20T03:14:57;-1.70;99.90
52459;DHT22;38372;52.902;6.024;2022-11-20T03:17:25;-1.70;99.90
52459;DHT22;38372;52.902;6.024;2022-11-20T03:19:51;-1.70;99.90
52459;DHT22;38372;52.902;6.024;2022-11-20T03:22:17;-1.70;99.90
52459;DHT22;38372;52.902;6.024;2022-11-20T03:24:48;-1.70;99.90
52459;DHT22;38372;52.902;6.024;2022-11-20T03:27:14;-1.70;99.90
52459;DHT22;38372;52.902;6.024;2022-11-20T03:29:42;-1.60;99.90
52459;DHT22;38372;52.902;6.024;2022-11-20T03:32:09;-1.60;99.90
52459;DHT22;38372;52.902;6.024;2022-11-20T03:34:37;-1.60;99.90
52459;DHT22;38372;52.902;6.024;2022-11-20T03:37:03;-1.60;99.90
52459;DHT22;38372;52.902;6.024;2022-11-20T03:39:35;-1.60;99.90
52459;DHT22;38372;52.902;6.024;2022-11-20T03:42:01;-1.60;99.90
52459;DHT22;38372;52.902;6.024;2022-11-20T03:44:56;-1.60;99.90
52459;DHT22;38372;52.902;6.024;2022-11-20T03:47:28;-1.60;99.90
52459;DHT22;38372;52.902;6.024;2022-11-20T03:50:11;-1.60;99.90
52459;DHT22;38372;52.902;6.024;2022-11-20T03:52:40;-1.50;99.90
52459;DHT22;38372;52.902;6.024;2022-11-20T03:55:07;-1.50;99.90
52459;DHT22;38372;52.902;6.024;2022-11-20T03:57:39;-1.50;99.90
52459;DHT22;38372;52.902;6.024;2022-11-20T04:00:08;-1.50;99.90
52459;DHT22;38372;52.902;6.024;2022-11-20T04:02:40;-1.50;99.90
52459;DHT22;38372;52.902;6.024;2022-11-20T04:05:07;-1.50;99.90
52459;DHT22;38372;52.902;6.024;2022-11-20T04:07:37;-1.50;99.90
52459;DHT22;38372;52.902;6.024;2022-11-20T04:10:03;-1.60;99.90
52459;DHT22;38372;52.902;6.024;2022-11-20T04:12:50;-1.50;99.90
52459;DHT22;38372;52.902;6.024;2022-11-20T04:15:16;-1.50;99.90
52459;DHT22;38372;52.902;6.024;2022-11-20T04:17:44;-1.60;99.90
52459;DHT22;38372;52.902;6.024;2022-11-20T04:20:14;-1.60;99.90
52459;DHT22;38372;52.902;6.024;2022-11-20T04:22:42;-1.60;99.90
52459;DHT22;38372;52.902;6.024;2022-11-20T04:25:15;-1.60;99.90
52459;DHT22;38372;52.902;6.024;2022-11-20T04:27:43;-1.60;99.90
52459;DHT22;38372;52.902;6.024;2022-11-20T04:30:13;-1.60;99.90
52459;DHT22;38372;52.902;6.024;2022-11-20T04:32:40;-1.60;99.90
52459;DHT22;38372;52.902;6.024;2022-11-20T04:35:09;-1.60;99.90
52459;DHT22;38372;52.902;6.024;2022-11-20T04:37:38;-1.60;99.90
52459;DHT22;38372;52.902;6.024;2022-11-20T04:40:14;-1.60;99.90
52459;DHT22;38372;52.902;6.024;2022-11-20T04:42:40;-1.70;99.90
52459;DHT22;38372;52.902;6.024;2022-11-20T04:45:08;-1.70;99.90
52459;DHT22;38372;52.902;6.024;2022-11-20T04:47:37;-1.70;99.90
52459;DHT22;38372;52.902;6.024;2022-11-20T04:50:15;-1.70;99.90
52459;DHT22;38372;52.902;6.024;2022-11-20T04:52:42;-1.70;99.90
52459;DHT22;38372;52.902;6.024;2022-11-20T04:55:11;-1.70;99.90
52459;DHT22;38372;52.902;6.024;2022-11-20T04:57:41;-1.70;99.90
52459;DHT22;38372;52.902;6.024;2022-11-20T05:00:11;-1.60;99.90
52459;DHT22;38372;52.902;6.024;2022-11-20T05:02:37;-1.60;99.90
52459;DHT22;38372;52.902;6.024;2022-11-20T05:05:06;-1.60;99.90
52459;DHT22;38372;52.902;6.024;2022-11-20T05:07:38;-1.60;99.90
52459;DHT22;38372;52.902;6.024;2022-11-20T05:10:16;-1.60;99.90
52459;DHT22;38372;52.902;6.024;2022-11-20T05:12:45;-1.80;99.90
52459;DHT22;38372;52.902;6.024;2022-11-20T05:15:17;-1.80;99.90
52459;DHT22;38372;52.902;6.024;2022-11-20T05:17:51;-1.90;99.90
52459;DHT22;38372;52.902;6.024;2022-11-20T05:20:18;-2.00;99.90
52459;DHT22;38372;52.902;6.024;2022-11-20T05:22:48;-2.00;99.90
52459;DHT22;38372;52.902;6.024;2022-11-20T05:25:17;-2.00;99.90
52459;DHT22;38372;52.902;6.024;2022-11-20T05:27:46;-2.10;99.90
52459;DHT22;38372;52.902;6.024;2022-11-20T05:30:12;-2.10;99.90
52459;DHT22;38372;52.902;6.024;2022-11-20T05:32:47;-2.10;99.90
52459;DHT22;38372;52.902;6.024;2022-11-20T05:35:23;-2.10;99.90
52459;DHT22;38372;52.902;6.024;2022-11-20T05:37:48;-2.00;99.90
52459;DHT22;38372;52.902;6.024;2022-11-20T05:40:14;-2.00;99.90
52459;DHT22;38372;52.902;6.024;2022-11-20T05:42:40;-2.00;99.90
52459;DHT22;38372;52.902;6.024;2022-11-20T05:45:06;-2.00;99.90
52459;DHT22;38372;52.902;6.024;2022-11-20T05:47:33;-2.00;99.90
52459;DHT22;38372;52.902;6.024;2022-11-20T05:49:59;-2.00;99.90
52459;DHT22;38372;52.902;6.024;2022-11-20T05:52:28;-2.00;99.90
52459;DHT22;38372;52.902;6.024;2022-11-20T05:54:55;-2.00;99.90
52459;DHT22;38372;52.902;6.024;2022-11-20T05:57:20;-2.00;99.90
52459;DHT22;38372;52.902;6.024;2022-11-20T05:59:46;-2.10;99.90
52459;DHT22;38372;52.902;6.024;2022-11-20T06:02:12;-2.10;99.90
52459;DHT22;38372;52.902;6.024;2022-11-20T06:04:38;-2.10;99.90
52459;DHT22;38372;52.902;6.024;2022-11-20T06:07:05;-2.10;99.90
52459;DHT22;38372;52.902;6.024;2022-11-20T06:09:31;-2.10;99.90
52459;DHT22;38372;52.902;6.024;2022-11-20T06:11:56;-2.00;99.90
52459;DHT22;38372;52.902;6.024;2022-11-20T06:14:22;-2.10;99.90
52459;DHT22;38372;52.902;6.024;2022-11-20T06:16:48;-2.00;99.90
52459;DHT22;38372;52.902;6.024;2022-11-20T06:19:13;-2.00;99.90
52459;DHT22;38372;52.902;6.024;2022-11-20T06:21:40;-1.90;99.90
52459;DHT22;38372;52.902;6.024;2022-11-20T06:24:06;-1.90;99.90
52459;DHT22;38372;52.902;6.024;2022-11-20T06:26:34;-1.80;99.90
52459;DHT22;38372;52.902;6.024;2022-11-20T06:28:59;-1.80;99.90
52459;DHT22;38372;52.902;6.024;2022-11-20T06:31:25;-1.80;99.90
52459;DHT22;38372;52.902;6.024;2022-11-20T06:33:52;-1.80;99.90
52459;DHT22;38372;52.902;6.024;2022-11-20T06:36:20;-1.80;99.90
52459;DHT22;38372;52.902;6.024;2022-11-20T06:38:46;-1.80;99.90
52459;DHT22;38372;52.902;6.024;2022-11-20T06:41:21;-1.80;99.90
52459;DHT22;38372;52.902;6.024;2022-11-20T06:43:48;-1.90;99.90
52459;DHT22;38372;52.902;6.024;2022-11-20T06:46:15;-1.90;99.90
52459;DHT22;38372;52.902;6.024;2022-11-20T06:48:44;-1.90;99.90
52459;DHT22;38372;52.902;6.024;2022-11-20T06:51:10;-1.90;99.90
52459;DHT22;38372;52.902;6.024;2022-11-20T06:53:37;-1.90;99.90
52459;DHT22;38372;52.902;6.024;2022-11-20T06:56:03;-1.90;99.90
52459;DHT22;38372;52.902;6.024;2022-11-20T06:58:31;-1.90;99.90
52459;DHT22;38372;52.902;6.024;2022-11-20T07:01:07;-1.90;99.90
52459;DHT22;38372;52.902;6.024;2022-11-20T07:03:34;-1.90;99.90
52459;DHT22;38372;52.902;6.024;2022-11-20T07:06:01;-1.80;99.90
52459;DHT22;38372;52.902;6.024;2022-11-20T07:08:27;-1.80;99.90
52459;DHT22;38372;52.902;6.024;2022-11-20T07:10:59;-1.80;99.90
52459;DHT22;38372;52.902;6.024;2022-11-20T07:13:26;-1.80;99.90
52459;DHT22;38372;52.902;6.024;2022-11-20T07:15:52;-1.80;99.90
52459;DHT22;38372;52.902;6.024;2022-11-20T07:18:18;-1.80;99.90
52459;DHT22;38372;52.902;6.024;2022-11-20T07:20:43;-1.70;99.90
52459;DHT22;38372;52.902;6.024;2022-11-20T07:23:09;-1.70;99.90
52459;DHT22;38372;52.902;6.024;2022-11-20T07:25:35;-1.70;99.90
52459;DHT22;38372;52.902;6.024;2022-11-20T07:28:01;-1.70;99.90
52459;DHT22;38372;52.902;6.024;2022-11-20T07:30:30;-1.70;99.90
52459;DHT22;38372;52.902;6.024;2022-11-20T07:32:56;-1.60;99.90
52459;DHT22;38372;52.902;6.024;2022-11-20T07:35:23;-1.60;99.90
52459;DHT22;38372;52.902;6.024;2022-11-20T07:37:49;-1.60;99.90
52459;DHT22;38372;52.902;6.024;2022-11-20T07:40:15;-1.50;99.90
52459;DHT22;38372;52.902;6.024;2022-11-20T07:42:51;-1.60;99.90
52459;DHT22;38372;52.902;6.024;2022-11-20T07:45:18;-1.50;99.90
52459;DHT22;38372;52.902;6.024;2022-11-20T07:47:44;-1.60;99.90
52459;DHT22;38372;52.902;6.024;2022-11-20T07:50:11;-1.50;99.90
52459;DHT22;38372;52.902;6.024;2022-11-20T07:52:36;-1.60;99.90
52459;DHT22;38372;52.902;6.024;2022-11-20T07:55:02;-1.60;99.90
52459;DHT22;38372;52.902;6.024;2022-11-20T07:57:28;-1.50;99.90
52459;DHT22;38372;52.902;6.024;2022-11-20T07:59:54;-1.50;99.90
52459;DHT22;38372;52.902;6.024;2022-11-20T08:02:20;-1.50;99.90
52459;DHT22;38372;52.902;6.024;2022-11-20T08:04:45;-1.50;99.90
52459;DHT22;38372;52.902;6.024;2022-11-20T08:07:11;-1.40;99.90
52459;DHT22;38372;52.902;6.024;2022-11-20T08:09:37;-1.50;99.90
52459;DHT22;38372;52.902;6.024;2022-11-20T08:12:02;-1.50;99.90
52459;DHT22;38372;52.902;6.024;2022-11-20T08:14:46;-1.50;99.90
52459;DHT22;38372;52.902;6.024;2022-11-20T08:17:12;-1.40;99.90
52459;DHT22;38372;52.902;6.024;2022-11-20T08:19:38;-1.40;99.90
52459;DHT22;38372;52.902;6.024;2022-11-20T08:22:03;-1.30;99.90
52459;DHT22;38372;52.902;6.024;2022-11-20T08:24:29;-1.00;99.90
52459;DHT22;38372;52.902;6.024;2022-11-20T08:26:57;-0.60;99.90
52459;DHT22;38372;52.902;6.024;2022-11-20T08:29:23;0.00;99.90
52459;DHT22;38372;52.902;6.024;2022-11-20T08:31:49;0.70;99.90
52459;DHT22;38372;52.902;6.024;2022-11-20T08:34:15;1.30;99.90
52459;DHT22;38372;52.902;6.024;2022-11-20T08:36:41;1.90;99.90
52459;DHT22;38372;52.902;6.024;2022-11-20T08:39:06;2.40;99.90
52459;DHT22;38372;52.902;6.024;2022-11-20T08:41:32;2.80;99.90
52459;DHT22;38372;52.902;6.024;2022-11-20T08:44:00;3.60;99.90
52459;DHT22;38372;52.902;6.024;2022-11-20T08:46:34;4.50;99.90
52459;DHT22;38372;52.902;6.024;2022-11-20T08:49:00;5.30;99.90
52459;DHT22;38372;52.902;6.024;2022-11-20T08:51:26;5.70;99.90
52459;DHT22;38372;52.902;6.024;2022-11-20T08:53:54;6.30;99.90
52459;DHT22;38372;52.902;6.024;2022-11-20T08:56:22;6.80;99.90
52459;DHT22;38372;52.902;6.024;2022-11-20T08:58:50;7.30;99.90
52459;DHT22;38372;52.902;6.024;2022-11-20T09:01:17;7.40;99.90
52459;DHT22;38372;52.902;6.024;2022-11-20T09:03:42;7.20;99.90
52459;DHT22;38372;52.902;6.024;2022-11-20T09:06:08;7.40;99.90
52459;DHT22;38372;52.902;6.024;2022-11-20T09:08:34;7.80;99.90
52459;DHT22;38372;52.902;6.024;2022-11-20T09:11:02;8.20;99.90
52459;DHT22;38372;52.902;6.024;2022-11-20T09:13:28;8.60;99.90
52459;DHT22;38372;52.902;6.024;2022-11-20T09:15:59;8.90;99.90
52459;DHT22;38372;52.902;6.024;2022-11-20T09:18:26;9.20;99.90
52459;DHT22;38372;52.902;6.024;2022-11-20T09:20:59;9.50;99.90
52459;DHT22;38372;52.902;6.024;2022-11-20T09:23:27;9.70;99.90
52459;DHT22;38372;52.902;6.024;2022-11-20T09:25:56;9.80;99.90
52459;DHT22;38372;52.902;6.024;2022-11-20T09:28:25;9.80;99.90
52459;DHT22;38372;52.902;6.024;2022-11-20T09:30:51;9.90;99.90
52459;DHT22;38372;52.902;6.024;2022-11-20T09:33:17;10.00;99.90
52459;DHT22;38372;52.902;6.024;2022-11-20T09:35:46;10.10;99.90
52459;DHT22;38372;52.902;6.024;2022-11-20T09:38:18;10.10;99.90
52459;DHT22;38372;52.902;6.024;2022-11-20T09:41:05;10.30;99.90
52459;DHT22;38372;52.902;6.024;2022-11-20T09:46:29;10.30;99.90
52459;DHT22;38372;52.902;6.024;2022-11-20T09:52:22;10.60;99.90
52459;DHT22;38372;52.902;6.024;2022-11-20T09:54:50;10.80;99.90
52459;DHT22;38372;52.902;6.024;2022-11-20T09:57:21;11.00;99.90
52459;DHT22;38372;52.902;6.024;2022-11-20T09:59:56;11.30;99.90
52459;DHT22;38372;52.902;6.024;2022-11-20T10:05:31;11.80;99.90
52459;DHT22;38372;52.902;6.024;2022-11-20T10:10:52;12.40;99.50
52459;DHT22;38372;52.902;6.024;2022-11-20T10:13:42;12.60;98.20
52459;DHT22;38372;52.902;6.024;2022-11-20T10:19:02;12.70;97.60
52459;DHT22;38372;52.902;6.024;2022-11-20T10:27:33;12.60;94.30
52459;DHT22;38372;52.902;6.024;2022-11-20T10:32:39;12.40;95.60
52459;DHT22;38372;52.902;6.024;2022-11-20T10:38:31;10.90;94.60
52459;DHT22;38372;52.902;6.024;2022-11-20T10:41:34;10.50;95.10
52459;DHT22;38372;52.902;6.024;2022-11-20T10:44:36;9.70;95.80
52459;DHT22;38372;52.902;6.024;2022-11-20T10:47:31;8.60;95.90
52459;DHT22;38372;52.902;6.024;2022-11-20T10:50:17;7.50;97.00
52459;DHT22;38372;52.902;6.024;2022-11-20T11:00:30;5.00;99.90
52459;DHT22;38372;52.902;6.024;2022-11-20T11:02:56;4.70;99.90
52459;DHT22;38372;52.902;6.024;2022-11-20T11:06:23;4.40;99.90
52459;DHT22;38372;52.902;6.024;2022-11-20T11:08:34;4.20;99.90
52459;DHT22;38372;52.902;6.024;2022-11-20T11:11:23;4.10;99.90
52459;DHT22;38372;52.902;6.024;2022-11-20T11:13:49;3.90;99.90
52459;DHT22;38372;52.902;6.024;2022-11-20T11:16:22;3.70;99.90
52459;DHT22;38372;52.902;6.024;2022-11-20T11:18:48;3.60;99.90
52459;DHT22;38372;52.902;6.024;2022-11-20T11:21:21;3.50;99.90
52459;DHT22;38372;52.902;6.024;2022-11-20T11:24:01;3.40;99.90
52459;DHT22;38372;52.902;6.024;2022-11-20T11:26:27;3.40;99.90
52459;DHT22;38372;52.902;6.024;2022-11-20T11:28:59;3.40;99.90
52459;DHT22;38372;52.902;6.024;2022-11-20T11:31:33;3.40;99.90
52459;DHT22;38372;52.902;6.024;2022-11-20T11:34:14;3.40;99.90
52459;DHT22;38372;52.902;6.024;2022-11-20T11:36:40;3.50;99.90
52459;DHT22;38372;52.902;6.024;2022-11-20T11:39:11;3.60;99.90
52459;DHT22;38372;52.902;6.024;2022-11-20T11:41:39;3.70;99.90
52459;DHT22;38372;52.902;6.024;2022-11-20T11:55:09;4.00;99.90
52459;DHT22;38372;52.902;6.024;2022-11-20T11:57:51;3.80;99.90
52459;DHT22;38372;52.902;6.024;2022-11-20T12:00:19;3.60;99.90
52459;DHT22;38372;52.902;6.024;2022-11-20T12:05:40;3.40;99.90
52459;DHT22;38372;52.902;6.024;2022-11-20T12:13:57;3.30;99.90
52459;DHT22;38372;52.902;6.024;2022-11-20T12:16:23;3.20;99.90
52459;DHT22;38372;52.902;6.024;2022-11-20T12:18:51;3.30;99.90
52459;DHT22;38372;52.902;6.024;2022-11-20T12:35:00;3.10;99.90
52459;DHT22;38372;52.902;6.024;2022-11-20T12:37:53;3.10;99.90
52459;DHT22;38372;52.902;6.024;2022-11-20T12:43:11;3.10;99.90
52459;DHT22;38372;52.902;6.024;2022-11-20T12:46:13;3.00;99.90
52459;DHT22;38372;52.902;6.024;2022-11-20T13:00:08;2.90;99.90
52459;DHT22;38372;52.902;6.024;2022-11-20T13:03:51;2.90;99.90
52459;DHT22;38372;52.902;6.024;2022-11-20T13:08:25;2.90;99.90
52459;DHT22;38372;52.902;6.024;2022-11-20T13:14:17;2.90;99.90
52459;DHT22;38372;52.902;6.024;2022-11-20T13:17:10;2.90;99.90
52459;DHT22;38372;52.902;6.024;2022-11-20T13:19:37;2.90;99.90
52459;DHT22;38372;52.902;6.024;2022-11-20T13:22:04;3.00;99.90
52459;DHT22;38372;52.902;6.024;2022-11-20T13:24:31;3.00;99.90
52459;DHT22;38372;52.902;6.024;2022-11-20T13:27:23;3.00;99.90
52459;DHT22;38372;52.902;6.024;2022-11-20T13:30:14;2.90;99.90
52459;DHT22;38372;52.902;6.024;2022-11-20T13:35:35;2.90;99.90
52459;DHT22;38372;52.902;6.024;2022-11-20T13:40:27;2.90;99.90
52459;DHT22;38372;52.902;6.024;2022-11-20T13:43:14;2.80;99.90
52459;DHT22;38372;52.902;6.024;2022-11-20T13:45:41;2.80;99.90
52459;DHT22;38372;52.902;6.024;2022-11-20T13:48:22;2.70;99.90
52459;DHT22;38372;52.902;6.024;2022-11-20T14:01:39;2.50;99.90
52459;DHT22;38372;52.902;6.024;2022-11-20T14:04:09;2.50;99.90
52459;DHT22;38372;52.902;6.024;2022-11-20T14:06:42;2.50;99.90
52459;DHT22;38372;52.902;6.024;2022-11-20T14:09:24;2.50;99.90
52459;DHT22;38372;52.902;6.024;2022-11-20T14:11:51;2.50;99.90
52459;DHT22;38372;52.902;6.024;2022-11-20T14:14:19;2.40;99.90
52459;DHT22;38372;52.902;6.024;2022-11-20T14:16:46;2.40;99.90
52459;DHT22;38372;52.902;6.024;2022-11-20T14:19:28;2.50;99.90
52459;DHT22;38372;52.902;6.024;2022-11-20T14:22:18;2.40;99.90
52459;DHT22;38372;52.902;6.024;2022-11-20T14:24:45;2.40;99.90
52459;DHT22;38372;52.902;6.024;2022-11-20T14:27:21;2.40;99.90
52459;DHT22;38372;52.902;6.024;2022-11-20T14:29:49;2.40;99.90
52459;DHT22;38372;52.902;6.024;2022-11-20T14:32:20;2.30;99.90
52459;DHT22;38372;52.902;6.024;2022-11-20T14:34:49;2.30;99.90
52459;DHT22;38372;52.902;6.024;2022-11-20T14:37:24;2.30;99.90
52459;DHT22;38372;52.902;6.024;2022-11-20T14:39:55;2.30;99.90
52459;DHT22;38372;52.902;6.024;2022-11-20T14:42:26;2.30;99.90
52459;DHT22;38372;52.902;6.024;2022-11-20T14:44:58;2.20;99.90
52459;DHT22;38372;52.902;6.024;2022-11-20T14:47:29;2.20;99.90
52459;DHT22;38372;52.902;6.024;2022-11-20T14:49:57;2.20;99.90
52459;DHT22;38372;52.902;6.024;2022-11-20T14:52:26;2.20;99.90
52459;DHT22;38372;52.902;6.024;2022-11-20T14:54:58;2.20;99.90
52459;DHT22;38372;52.902;6.024;2022-11-20T14:57:35;2.20;99.90
52459;DHT22;38372;52.902;6.024;2022-11-20T15:02:46;2.10;99.90
52459;DHT22;38372;52.902;6.024;2022-11-20T15:05:15;2.10;99.90
52459;DHT22;38372;52.902;6.024;2022-11-20T15:07:44;2.10;99.90
52459;DHT22;38372;52.902;6.024;2022-11-20T15:10:19;2.10;99.90
52459;DHT22;38372;52.902;6.024;2022-11-20T15:12:49;2.10;99.90
52459;DHT22;38372;52.902;6.024;2022-11-20T15:15:29;2.10;99.90
52459;DHT22;38372;52.902;6.024;2022-11-20T15:17:57;2.10;99.90
52459;DHT22;38372;52.902;6.024;2022-11-20T15:20:27;2.10;99.90
52459;DHT22;38372;52.902;6.024;2022-11-20T15:22:53;2.10;99.90
52459;DHT22;38372;52.902;6.024;2022-11-20T15:25:19;2.10;99.90
52459;DHT22;38372;52.902;6.024;2022-11-20T15:27:45;2.10;99.90
52459;DHT22;38372;52.902;6.024;2022-11-20T15:30:17;2.00;99.90
52459;DHT22;38372;52.902;6.024;2022-11-20T15:32:44;2.00;99.90
52459;DHT22;38372;52.902;6.024;2022-11-20T15:35:10;2.00;99.90
52459;DHT22;38372;52.902;6.024;2022-11-20T15:37:37;2.00;99.90
52459;DHT22;38372;52.902;6.024;2022-11-20T15:40:08;2.10;99.90
52459;DHT22;38372;52.902;6.024;2022-11-20T15:42:47;2.10;99.90
52459;DHT22;38372;52.902;6.024;2022-11-20T15:45:45;2.10;99.90
52459;DHT22;38372;52.902;6.024;2022-11-20T15:48:27;2.10;99.90
52459;DHT22;38372;52.902;6.024;2022-11-20T15:51:26;2.10;99.90
52459;DHT22;38372;52.902;6.024;2022-11-20T15:53:55;2.10;99.90
52459;DHT22;38372;52.902;6.024;2022-11-20T15:56:28;2.10;99.90
52459;DHT22;38372;52.902;6.024;2022-11-20T15:59:04;2.10;99.90
52459;DHT22;38372;52.902;6.024;2022-11-20T16:01:38;2.10;99.90
52459;DHT22;38372;52.902;6.024;2022-11-20T16:04:12;2.10;99.90
52459;DHT22;38372;52.902;6.024;2022-11-20T16:06:43;2.10;99.90
52459;DHT22;38372;52.902;6.024;2022-11-20T16:09:14;2.10;99.90
52459;DHT22;38372;52.902;6.024;2022-11-20T16:11:46;2.20;99.90
52459;DHT22;38372;52.902;6.024;2022-11-20T16:14:18;2.10;99.90
52459;DHT22;38372;52.902;6.024;2022-11-20T16:17:06;2.10;99.90
52459;DHT22;38372;52.902;6.024;2022-11-20T16:19:42;2.20;99.90
52459;DHT22;38372;52.902;6.024;2022-11-20T16:22:18;2.20;99.90
52459;DHT22;38372;52.902;6.024;2022-11-20T16:24:56;2.10;99.90
52459;DHT22;38372;52.902;6.024;2022-11-20T16:27:25;2.20;99.90
52459;DHT22;38372;52.902;6.024;2022-11-20T16:29:55;2.20;99.90
52459;DHT22;38372;52.902;6.024;2022-11-20T16:32:21;2.20;99.90
52459;DHT22;38372;52.902;6.024;2022-11-20T16:34:46;2.20;99.90
52459;DHT22;38372;52.902;6.024;2022-11-20T16:37:12;2.20;99.90
52459;DHT22;38372;52.902;6.024;2022-11-20T16:39:38;2.20;99.90
52459;DHT22;38372;52.902;6.024;2022-11-20T16:42:04;2.20;99.90
52459;DHT22;38372;52.902;6.024;2022-11-20T16:44:30;2.20;99.90
52459;DHT22;38372;52.902;6.024;2022-11-20T16:46:55;2.20;99.90
52459;DHT22;38372;52.902;6.024;2022-11-20T16:49:21;2.20;99.90
52459;DHT22;38372;52.902;6.024;2022-11-20T16:51:47;2.20;99.90
52459;DHT22;38372;52.902;6.024;2022-11-20T16:54:13;2.20;99.90
52459;DHT22;38372;52.902;6.024;2022-11-20T16:56:38;2.20;99.90
52459;DHT22;38372;52.902;6.024;2022-11-20T16:59:04;2.20;99.90
52459;DHT22;38372;52.902;6.024;2022-11-20T17:01:31;2.20;99.90
52459;DHT22;38372;52.902;6.024;2022-11-20T17:04:03;2.20;99.90
52459;DHT22;38372;52.902;6.024;2022-11-20T17:06:32;2.20;99.90
52459;DHT22;38372;52.902;6.024;2022-11-20T17:08:58;2.20;99.90
52459;DHT22;38372;52.902;6.024;2022-11-20T17:11:25;2.20;99.90
52459;DHT22;38372;52.902;6.024;2022-11-20T17:13:51;2.20;99.90
52459;DHT22;38372;52.902;6.024;2022-11-20T17:16:22;2.20;99.90
52459;DHT22;38372;52.902;6.024;2022-11-20T17:18:48;2.20;99.90
52459;DHT22;38372;52.902;6.024;2022-11-20T17:21:17;2.20;99.90
52459;DHT22;38372;52.902;6.024;2022-11-20T17:23:44;2.20;99.90
52459;DHT22;38372;52.902;6.024;2022-11-20T17:26:16;2.20;99.90
52459;DHT22;38372;52.902;6.024;2022-11-20T17:28:51;2.10;99.90
52459;DHT22;38372;52.902;6.024;2022-11-20T17:31:17;2.10;99.90
52459;DHT22;38372;52.902;6.024;2022-11-20T17:33:45;2.10;99.90
52459;DHT22;38372;52.902;6.024;2022-11-20T17:36:13;2.10;99.90
52459;DHT22;38372;52.902;6.024;2022-11-20T17:38:40;2.10;99.90
52459;DHT22;38372;52.902;6.024;2022-11-20T17:41:14;2.10;99.90
52459;DHT22;38372;52.902;6.024;2022-11-20T17:43:41;2.10;99.90
52459;DHT22;38372;52.902;6.024;2022-11-20T17:46:13;2.10;99.90
52459;DHT22;38372;52.902;6.024;2022-11-20T17:48:40;2.20;99.90
52459;DHT22;38372;52.902;6.024;2022-11-20T17:51:10;2.10;99.90
52459;DHT22;38372;52.902;6.024;2022-11-20T17:53:38;2.10;99.90
52459;DHT22;38372;52.902;6.024;2022-11-20T17:56:04;2.20;99.90